EW6742 Weather Reports


Display with metric or nautical units.
time (UTC)temp
F
wind
direction
speed
MPH
gust
MPH
rain 1hr
in
rain 24hr
in
rain mn
in
humidity
%
barometer
mb
20210922123136 60 121 0.0 0.0 0.12 0.22 0.15 95 1017.4
20210922121638 61 124 0.0 0.0 0.07 0.17 0.10 94 1017.3
20210922120135 61 41 0.0 0.0 0.01 0.10 0.03 94 1016.7
20210922114633 61 44 0.0 2.0 0.01 0.10 0.03 94 1016.3
20210922113135 62 167 1.0 3.0 0.01 0.10 0.03 95 1015.9
20210922111631 63 13 2.0 3.0 0.01 0.10 0.03 94 1015.3
20210922110132 64 355 1.0 5.0 0.00 0.09 0.02 94 1015.2
20210922104629 65 5 1.0 6.0 0.00 0.09 0.02 95 1015.0
20210922103126 66 45 0.0 8.0 0.00 0.09 0.02 95 1014.7
20210922101628 67 113 1.0 6.0 0.00 0.09 0.02 95 1014.3
20210922100127 68 88 1.0 13.0 0.00 0.09 0.02 95 1013.9
20210922094625 69 60 1.0 7.0 0.00 0.09 0.02 95 1013.3
20210922093123 70 204 0.0 6.0 0.00 0.09 0.02 96 1013.1
20210922091639 71 155 0.0 8.0 0.00 0.09 0.02 97 1013.0
20210922090135 71 110 1.0 2.0 0.00 0.09 0.02 97 1013.1
20210922084636 71 159 0.0 4.0 0.00 0.09 0.02 97 1013.0
20210922083136 72 31 0.0 3.0 0.00 0.09 0.02 97 1013.1
20210922081637 72 55 0.0 4.0 0.02 0.09 0.02 97 1013.1
20210922080135 72 88 0.0 6.0 0.02 0.09 0.02 97 1013.2
20210922074632 73 99 0.0 0.0 0.02 0.09 0.02 98 1013.3
20210922073133 73 196 0.0 0.0 0.02 0.09 0.02 98 1013.4
20210922071641 73 213 0.0 0.0 0.00 0.07 0.00 98 1013.5
20210922070135 72 213 0.0 0.0 0.00 0.07 0.00 98 1013.5
20210922064638 72 213 0.0 0.0 0.00 0.07 0.00 98 1013.9
20210922063127 71 213 0.0 0.0 0.00 0.07 0.00 98 1014.0
20210922061626 71 213 0.0 0.0 0.00 0.07 0.00 98 1014.0
20210922060129 71 213 0.0 0.0 0.00 0.07 0.00 97 1014.1
20210922054626 71 213 0.0 0.0 0.00 0.07 0.00 97 1014.3
20210922053123 71 213 0.0 0.0 0.00 0.07 0.00 97 1014.3
20210922051623 71 213 0.0 0.0 0.00 0.07 0.00 97 1014.7
20210922050132 72 213 0.0 0.0 0.00 0.07 0.00 97 1014.8
20210922043135 72 213 0.0 0.0 0.00 0.07 0.07 97 1014.7
20210922041637 72 213 0.0 0.0 0.00 0.07 0.07 97 1014.8
20210922040134 72 213 0.0 0.0 0.00 0.07 0.07 97 1015.0
20210922034634 72 213 0.0 0.0 0.00 0.07 0.07 97 1015.3
20210922033131 72 213 0.0 0.0 0.00 0.07 0.07 97 1015.3
20210922031626 72 213 0.0 0.0 0.00 0.07 0.07 97 1015.4
20210922030127 72 213 0.0 0.0 0.00 0.07 0.07 97 1015.3
20210922024636 72 213 0.0 0.0 0.00 0.07 0.07 96 1015.3
20210922023134 72 213 0.0 0.0 0.00 0.07 0.07 96 1015.5
20210922021634 73 213 0.0 0.0 0.00 0.07 0.07 96 1015.3
20210922020133 73 213 0.0 0.0 0.00 0.07 0.07 96 1015.3
20210922014631 73 213 0.0 0.0 0.00 0.07 0.07 96 1015.5
20210922013131 74 213 0.0 0.0 0.00 0.07 0.07 96 1015.6
20210922011629 74 213 0.0 0.0 0.00 0.07 0.07 96 1015.5
20210922010130 74 213 0.0 0.0 0.00 0.07 0.07 95 1015.5
20210922004637 74 213 0.0 0.0 0.00 0.07 0.07 95 1015.6
20210922003134 75 213 0.0 0.0 0.00 0.07 0.07 95 1015.5
20210922001630 75 213 0.0 0.0 0.00 0.07 0.07 94 1015.4
20210922000130 75 213 0.0 0.0 0.00 0.07 0.07 93 1015.4
20210921234627 76 213 0.0 0.0 0.00 0.07 0.07 92 1015.4
20210921233125 76 213 0.0 0.0 0.00 0.07 0.07 92 1015.3
20210921231624 77 213 0.0 0.0 0.00 0.07 0.07 90 1015.1
20210921230142 78 213 0.0 0.0 0.00 0.07 0.07 90 1015.0
20210921224640 79 213 0.0 0.0 0.00 0.07 0.07 88 1014.8
20210921223141 79 213 0.0 0.0 0.00 0.07 0.07 87 1014.5
20210921221639 79 213 0.0 0.0 0.00 0.07 0.07 87 1014.5
20210921220137 80 213 0.0 0.0 0.00 0.07 0.07 84 1014.6
20210921214636 81 213 0.0 0.0 0.00 0.07 0.07 82 1014.6
20210921213134 81 213 0.0 0.0 0.00 0.07 0.07 85 1014.8
20210921211627 80 213 0.0 0.0 0.00 0.07 0.07 90 1014.9
20210921210129 79 213 0.0 0.0 0.05 0.07 0.07 94 1015.0
20210921204631 78 213 0.0 0.0 0.07 0.17 0.07 93 1015.3
20210921203142 78 213 0.0 0.0 0.07 0.17 0.07 93 1015.4
20210921201637 77 213 0.0 0.0 0.07 0.17 0.07 92 1015.6
20210921200137 78 213 0.0 0.0 0.02 0.12 0.02 88 1015.8
20210921194636 79 220 0.0 0.0 0.00 0.15 0.00 87 1015.9
20210921193139 80 196 0.0 0.0 0.00 0.15 0.00 83 1016.0
20210921191638 81 196 0.0 0.0 0.00 0.15 0.00 82 1016.1
20210921190135 82 208 0.0 0.0 0.00 0.15 0.00 76 1016.1
20210921184637 82 237 0.0 0.0 0.00 0.18 0.00 76 1016.2
20210921183139 81 238 0.0 0.0 0.00 0.18 0.00 79 1016.4
20210921181637 80 223 0.0 0.0 0.00 0.18 0.00 83 1016.8
20210921180141 80 223 0.0 0.0 0.00 0.18 0.00 84 1017.0
20210921174639 80 223 0.0 0.0 0.00 0.18 0.00 83 1017.3
20210921173137 79 223 0.0 0.0 0.00 0.18 0.00 84 1017.3
20210921171641 79 190 0.0 0.0 0.00 0.18 0.00 84 1017.6
20210921170139 79 220 0.0 0.0 0.00 0.18 0.00 83 1017.8
20210921164637 78 198 0.0 0.0 0.00 0.18 0.00 85 1018.0
20210921163140 77 208 0.0 0.0 0.00 0.18 0.00 86 1018.2
20210921161627 77 197 0.0 0.0 0.00 0.18 0.00 87 1018.3
20210921154635 76 202 0.0 0.0 0.00 0.19 0.00 89 1018.6
20210921153133 76 241 0.0 0.0 0.00 0.19 0.00 88 1018.8
20210921151629 76 150 2.0 7.0 0.00 0.19 0.00 90 1018.3
20210921150131 75 244 3.0 5.0 0.00 0.19 0.00 91 1018.3
20210921144627 75 190 3.0 7.0 0.00 0.20 0.00 92 1018.1
20210921143129 74 205 1.0 2.0 0.00 0.20 0.00 92 1018.1
20210921141624 74 244 0.0 4.0 0.00 0.20 0.00 93 1018.0
20210921140140 74 223 0.0 1.0 0.00 0.20 0.00 93 1017.8
20210921134637 73 204 0.0 1.0 0.00 0.20 0.00 93 1017.7
20210921133140 73 211 0.0 2.0 0.00 0.20 0.00 94 1017.7
20210921131638 73 185 0.0 2.0 0.00 0.20 0.00 95 1017.6
20210921130141 72 107 0.0 0.0 0.00 0.20 0.00 95 1017.6
20210921124639 72 201 0.0 0.0 0.00 0.37 0.00 96 1017.4